createdAt,value
2023-01-09T00:00:25.189Z,1.50
2023-01-09T00:03:26.939Z,1.70
2023-01-09T00:06:28.634Z,1.10
2023-01-09T00:09:30.206Z,1.60
2023-01-09T00:12:32.995Z,1.48
2023-01-09T00:15:34.500Z,1.25
2023-01-09T00:18:36.942Z,1.45
2023-01-09T00:21:38.597Z,1.58
2023-01-09T00:24:40.130Z,1.20
2023-01-09T00:27:41.603Z,1.35
2023-01-09T00:30:43.159Z,1.60
2023-01-09T00:33:50.381Z,1.25
2023-01-09T00:36:51.960Z,1.30
2023-01-09T00:39:53.440Z,1.92
2023-01-09T00:42:56.722Z,1.40
2023-01-09T00:46:00.755Z,1.20
2023-01-09T00:49:05.243Z,1.40
2023-01-09T00:52:10.144Z,1.70
2023-01-09T00:55:13.753Z,1.20
2023-01-09T00:58:15.358Z,1.67
2023-01-09T01:01:16.909Z,1.77
2023-01-09T01:04:18.481Z,1.50
2023-01-09T01:07:19.966Z,1.70
2023-01-09T01:10:24.233Z,1.77
2023-01-09T01:16:27.160Z,1.83
2023-01-09T01:19:28.866Z,2.05
2023-01-09T01:22:30.507Z,1.80
2023-01-09T01:25:32.097Z,2.38
2023-01-09T01:28:33.707Z,2.60
2023-01-09T01:31:35.301Z,1.85
2023-01-09T01:34:36.912Z,2.00
2023-01-09T01:37:39.110Z,2.35
2023-01-09T01:40:40.615Z,2.40
2023-01-09T01:44:36.257Z,2.13
2023-01-09T01:51:06.111Z,2.28
2023-01-09T01:54:12.545Z,2.13
2023-01-09T01:57:14.947Z,1.95
2023-01-09T02:00:20.181Z,2.22
2023-01-09T02:03:27.071Z,2.10
2023-01-09T02:06:30.003Z,2.53
2023-01-09T02:09:31.771Z,2.47
2023-01-09T02:12:33.290Z,2.78
2023-01-09T02:15:50.687Z,2.92
2023-01-09T02:19:07.174Z,3.22
2023-01-09T02:22:23.865Z,3.10
2023-01-09T02:26:13.272Z,4.05
2023-01-09T02:29:30.992Z,3.55
2023-01-09T02:32:58.118Z,4.25
2023-01-09T02:36:12.239Z,4.63
2023-01-09T02:39:22.735Z,4.72
2023-01-09T02:42:26.085Z,5.32
2023-01-09T02:45:27.791Z,5.00
2023-01-09T02:48:30.495Z,5.57
2023-01-09T02:51:51.262Z,5.07
2023-01-09T02:55:19.171Z,5.03
2023-01-09T02:58:38.762Z,5.10
2023-01-09T03:01:43.301Z,4.80
2023-01-09T03:05:26.283Z,4.70
2023-01-09T03:08:36.552Z,4.40
2023-01-09T03:11:44.844Z,4.18
2023-01-09T03:14:50.788Z,4.28
2023-01-09T03:17:53.097Z,4.78
2023-01-09T03:20:55.032Z,4.15
2023-01-09T03:23:59.865Z,3.55
2023-01-09T03:27:01.417Z,3.17
2023-01-09T03:30:03.366Z,3.47
2023-01-09T03:33:04.955Z,3.38
2023-01-09T03:36:07.461Z,3.47
2023-01-09T03:39:08.969Z,3.03
2023-01-09T03:42:10.481Z,3.53
2023-01-09T03:45:12.289Z,3.97
2023-01-09T03:48:13.997Z,4.70
2023-01-09T03:51:15.616Z,5.45
2023-01-09T03:54:17.103Z,6.18
2023-01-09T03:57:18.573Z,5.82
2023-01-09T04:00:21.161Z,6.15
2023-01-09T04:03:22.643Z,5.57
2023-01-09T04:06:24.109Z,6.07
2023-01-09T04:09:25.752Z,5.97
2023-01-09T04:12:27.289Z,5.75
2023-01-09T04:15:28.845Z,5.88
2023-01-09T04:18:30.323Z,5.47
2023-01-09T04:21:32.090Z,5.72
2023-01-09T04:24:33.553Z,5.80
2023-01-09T04:27:35.075Z,5.45
2023-01-09T04:30:36.617Z,5.97
2023-01-09T04:33:38.076Z,5.68
2023-01-09T04:36:39.601Z,5.55
2023-01-09T04:39:42.647Z,6.40
2023-01-09T04:42:44.171Z,6.00
2023-01-09T04:45:45.748Z,6.00
2023-01-09T04:48:47.302Z,5.40
2023-01-09T04:51:49.290Z,5.10
2023-01-09T04:54:50.872Z,4.40
2023-01-09T04:57:52.377Z,4.68
2023-01-09T05:00:54.022Z,4.03
2023-01-09T05:03:55.807Z,4.13
2023-01-09T05:06:57.328Z,4.40
2023-01-09T05:09:58.810Z,4.72
2023-01-09T05:13:00.294Z,4.65
2023-01-09T05:16:01.861Z,4.35
2023-01-09T05:19:03.375Z,4.28
2023-01-09T05:22:05.248Z,4.15
2023-01-09T05:25:07.108Z,4.00
2023-01-09T05:28:08.775Z,3.85
2023-01-09T05:31:10.679Z,3.47
2023-01-09T05:34:12.130Z,3.40
2023-01-09T05:37:13.590Z,3.55
2023-01-09T05:40:15.213Z,2.85
2023-01-09T05:43:16.691Z,3.10
2023-01-09T05:46:18.287Z,3.53
2023-01-09T05:49:19.820Z,3.03
2023-01-09T05:52:21.383Z,3.17
2023-01-09T05:55:22.978Z,3.20
2023-01-09T05:58:24.589Z,3.03
2023-01-09T06:01:26.221Z,3.38
2023-01-09T06:04:27.854Z,3.50
2023-01-09T06:07:29.437Z,3.35
2023-01-09T06:10:30.908Z,3.80
2023-01-09T06:13:32.409Z,3.90
2023-01-09T06:16:33.893Z,3.55
2023-01-09T06:19:35.466Z,4.53
2023-01-09T06:22:36.972Z,4.10
2023-01-09T06:25:38.412Z,4.30
2023-01-09T06:28:39.897Z,4.38
2023-01-09T06:31:41.443Z,3.90
2023-01-09T06:34:42.977Z,4.35
2023-01-09T06:37:44.517Z,4.20
2023-01-09T06:40:47.226Z,4.13
2023-01-09T06:43:48.740Z,3.65
2023-01-09T06:46:50.270Z,4.10
2023-01-09T06:49:51.797Z,4.13
2023-01-09T06:52:53.443Z,4.50
2023-01-09T06:55:55.026Z,4.07
2023-01-09T06:58:56.524Z,4.40
2023-01-09T07:01:58.110Z,3.67
2023-01-09T07:04:59.708Z,3.50
2023-01-09T07:08:01.231Z,3.92
2023-01-09T07:11:02.826Z,3.90
2023-01-09T07:14:04.382Z,4.50
2023-01-09T07:17:05.918Z,3.53
2023-01-09T07:20:07.988Z,3.45
2023-01-09T07:23:12.818Z,3.42
2023-01-09T07:26:14.350Z,2.80
2023-01-09T07:29:15.854Z,2.13
2023-01-09T07:32:17.492Z,2.88
2023-01-09T07:35:19.051Z,2.67
2023-01-09T07:38:20.565Z,2.28
2023-01-09T07:41:22.151Z,2.38
2023-01-09T07:44:23.799Z,2.67
2023-01-09T07:47:25.252Z,2.42
2023-01-09T07:50:26.766Z,2.42
2023-01-09T07:53:28.346Z,1.90
2023-01-09T07:56:29.985Z,1.30
2023-01-09T07:59:33.815Z,1.42
2023-01-09T08:02:35.404Z,1.23
2023-01-09T08:05:36.964Z,1.00
2023-01-09T08:08:38.505Z,1.10
2023-01-09T08:11:40.120Z,1.40
2023-01-09T08:14:41.688Z,0.82
2023-01-09T08:17:45.041Z,1.20
2023-01-09T08:20:48.948Z,0.77
2023-01-09T08:23:50.573Z,0.93
2023-01-09T08:26:52.047Z,1.08
2023-01-09T08:29:53.497Z,1.40
2023-01-09T08:32:55.067Z,0.80
2023-01-09T08:35:56.643Z,0.73
2023-01-09T08:38:58.246Z,1.23
2023-01-09T08:41:59.781Z,1.27
2023-01-09T08:45:01.288Z,1.17
2023-01-09T08:48:02.878Z,1.67
2023-01-09T08:51:04.398Z,1.48
2023-01-09T08:54:05.950Z,2.00
2023-01-09T08:57:08.035Z,1.20
2023-01-09T09:00:10.232Z,1.40
2023-01-09T09:03:11.804Z,1.95
2023-01-09T09:06:13.384Z,1.80
2023-01-09T09:09:15.074Z,2.00
2023-01-09T09:12:16.591Z,1.90
2023-01-09T09:15:18.639Z,1.70
2023-01-09T09:18:20.170Z,2.10
2023-01-09T09:21:21.707Z,2.10
2023-01-09T09:24:23.226Z,2.00
2023-01-09T09:27:24.825Z,2.50
2023-01-09T09:30:26.483Z,2.55
2023-01-09T09:33:28.016Z,1.80
2023-01-09T09:36:29.578Z,2.97
2023-01-09T09:39:31.080Z,2.28
2023-01-09T09:42:44.379Z,2.50
2023-01-09T09:45:56.161Z,1.63
2023-01-09T09:49:28.987Z,2.10
2023-01-09T09:52:49.929Z,1.52
2023-01-09T09:55:51.905Z,1.30
2023-01-09T09:59:12.905Z,1.55
2023-01-09T10:02:29.012Z,1.60
2023-01-09T10:05:34.905Z,1.30
2023-01-09T10:08:44.984Z,1.27
2023-01-09T10:12:24.363Z,1.23
2023-01-09T10:15:36.004Z,1.80
2023-01-09T10:18:42.247Z,1.50
2023-01-09T10:22:03.140Z,1.50
2023-01-09T10:25:24.901Z,1.67
2023-01-09T10:28:32.394Z,1.42
2023-01-09T10:31:53.737Z,2.30
2023-01-09T10:35:23.193Z,2.03
2023-01-09T10:38:34.530Z,1.75
2023-01-09T10:42:10.571Z,2.42
2023-01-09T10:45:53.291Z,2.83
2023-01-09T10:49:00.406Z,5.65
2023-01-09T10:52:24.952Z,2.42
2023-01-09T10:55:32.611Z,3.83
2023-01-09T10:58:34.311Z,2.78
2023-01-09T11:01:39.685Z,3.58
2023-01-09T11:04:41.871Z,2.67
2023-01-09T11:07:48.248Z,4.50
2023-01-09T11:10:52.853Z,3.25
2023-01-09T11:14:05.549Z,2.33
2023-01-09T11:17:19.439Z,2.35
2023-01-09T11:20:29.750Z,1.92
2023-01-09T11:23:34.159Z,2.33
2023-01-09T11:26:40.209Z,2.28
2023-01-09T11:29:44.337Z,2.00
2023-01-09T11:32:47.598Z,2.05
2023-01-09T11:36:04.291Z,2.20
2023-01-09T11:39:05.883Z,2.28
2023-01-09T11:42:18.813Z,2.40
2023-01-09T11:45:21.655Z,2.03
2023-01-09T11:49:09.413Z,2.15
2023-01-09T11:52:19.850Z,2.15
2023-01-09T11:55:22.563Z,1.63
2023-01-09T11:58:25.359Z,2.22
2023-01-09T12:01:54.362Z,1.80
2023-01-09T12:05:16.608Z,1.92
2023-01-09T12:08:30.174Z,1.90
2023-01-09T12:11:47.602Z,3.10
2023-01-09T12:15:13.954Z,2.38
2023-01-09T12:18:40.846Z,1.70
2023-01-09T12:22:13.366Z,1.90
2023-01-09T12:25:40.313Z,1.90
2023-01-09T12:28:53.533Z,2.25
2023-01-09T12:32:18.263Z,3.75
2023-01-09T12:35:33.403Z,2.28
2023-01-09T12:38:53.957Z,2.70
2023-01-09T12:42:07.973Z,1.55
2023-01-09T12:45:33.802Z,1.50
2023-01-09T12:48:35.338Z,1.58
2023-01-09T12:51:59.319Z,1.75
2023-01-09T12:55:23.522Z,2.53
2023-01-09T12:58:31.280Z,2.15
2023-01-09T13:01:39.024Z,1.92
2023-01-09T13:04:56.781Z,1.80
2023-01-09T13:08:25.495Z,1.60
2023-01-09T13:11:48.980Z,1.98
2023-01-09T13:15:05.657Z,3.03
2023-01-09T13:18:20.836Z,2.10
2023-01-09T13:21:22.555Z,2.17
2023-01-09T13:25:06.920Z,2.10
2023-01-09T13:28:36.662Z,2.73
2023-01-09T13:32:08.895Z,2.05
2023-01-09T13:35:13.740Z,10.25
2023-01-09T13:38:21.947Z,2.10
2023-01-09T13:41:24.425Z,1.67
2023-01-09T13:44:28.469Z,2.22
2023-01-09T13:47:30.072Z,1.77
2023-01-09T13:50:31.702Z,1.90
2023-01-09T13:53:33.233Z,2.15
2023-01-09T13:57:13.367Z,2.42
2023-01-09T14:00:14.849Z,2.13
2023-01-09T14:03:26.747Z,2.13
2023-01-09T14:06:28.320Z,2.50
2023-01-09T14:09:30.577Z,1.67
2023-01-09T14:12:39.456Z,1.90
2023-01-09T14:15:43.328Z,2.70
2023-01-09T14:18:49.497Z,2.03
2023-01-09T14:21:54.944Z,2.33
2023-01-09T14:25:04.094Z,1.73
2023-01-09T14:28:18.648Z,1.95
2023-01-09T14:31:32.253Z,1.63
2023-01-09T14:34:38.893Z,2.63
2023-01-09T14:37:42.259Z,1.90
2023-01-09T14:41:22.626Z,2.70
2023-01-09T14:44:42.519Z,1.80
2023-01-09T14:47:53.336Z,2.55
2023-01-09T14:50:59.758Z,1.98
2023-01-09T14:54:10.507Z,2.28
2023-01-09T14:57:30.172Z,3.20
2023-01-09T15:00:31.693Z,3.25
2023-01-09T15:03:33.143Z,2.45
2023-01-09T15:06:40.620Z,2.25
2023-01-09T15:09:45.738Z,4.25
2023-01-09T15:12:49.876Z,3.50
2023-01-09T15:15:51.431Z,2.95
2023-01-09T15:19:03.761Z,2.13
2023-01-09T15:22:07.293Z,2.20
2023-01-09T15:25:33.877Z,2.28
2023-01-09T15:28:42.852Z,2.85
2023-01-09T15:31:48.212Z,2.63
2023-01-09T15:34:50.095Z,4.10
2023-01-09T15:37:53.553Z,3.47
2023-01-09T15:41:04.415Z,5.25
2023-01-09T15:44:11.962Z,3.80
2023-01-09T15:47:24.488Z,4.38
2023-01-09T15:50:29.380Z,2.85
2023-01-09T15:53:31.048Z,2.88
2023-01-09T15:56:32.612Z,7.20
2023-01-09T15:59:34.189Z,2.80
2023-01-09T16:02:37.073Z,12.18
2023-01-09T16:05:44.573Z,2.30
2023-01-09T16:08:51.742Z,2.78
2023-01-09T16:11:56.328Z,3.45
2023-01-09T16:15:00.489Z,2.40
2023-01-09T16:21:34.498Z,2.70
2023-01-09T16:24:41.037Z,2.10
2023-01-09T16:27:42.554Z,1.58
2023-01-09T16:31:17.296Z,2.17
2023-01-09T16:34:19.109Z,3.80
2023-01-09T16:37:25.273Z,2.30
2023-01-09T16:40:27.537Z,2.25
2023-01-09T16:43:29.005Z,2.80
2023-01-09T16:46:30.518Z,2.75
2023-01-09T16:49:32.132Z,2.78
2023-01-09T16:52:34.071Z,16.88
2023-01-09T16:55:37.505Z,3.67
2023-01-09T16:58:39.056Z,3.90
2023-01-09T17:01:41.326Z,5.30
2023-01-09T17:04:42.999Z,5.07
2023-01-09T17:07:44.517Z,6.10
2023-01-09T17:10:45.982Z,3.80
2023-01-09T17:13:48.103Z,4.07
2023-01-09T17:16:49.751Z,3.30
2023-01-09T17:19:51.311Z,3.17
2023-01-09T17:22:52.773Z,4.75
2023-01-09T17:25:57.927Z,3.00
2023-01-09T17:28:59.444Z,2.40
2023-01-09T17:32:01.153Z,2.22
2023-01-09T17:35:02.697Z,2.90
2023-01-09T17:38:04.221Z,2.88
2023-01-09T17:41:05.706Z,2.97
2023-01-09T17:44:07.483Z,3.08
2023-01-09T17:47:15.480Z,3.40
2023-01-09T17:50:19.346Z,3.38
2023-01-09T17:53:20.825Z,3.55
2023-01-09T17:56:27.958Z,3.33
2023-01-09T17:59:29.548Z,4.45
2023-01-09T18:02:31.104Z,7.22
2023-01-09T18:05:33.174Z,16.17
2023-01-09T18:08:34.859Z,6.35
2023-01-09T18:11:36.368Z,5.63
2023-01-09T18:14:38.096Z,6.75
2023-01-09T18:17:39.578Z,5.70
2023-01-09T18:20:44.444Z,4.80
2023-01-09T18:23:47.573Z,5.55
2023-01-09T18:26:49.187Z,4.47
2023-01-09T18:29:50.677Z,3.97
2023-01-09T18:32:52.443Z,5.60
2023-01-09T18:35:54.009Z,5.90
2023-01-09T18:38:57.184Z,5.82
2023-01-09T18:41:58.867Z,6.97
2023-01-09T18:45:00.321Z,6.00
2023-01-09T18:48:01.831Z,8.43
2023-01-09T18:51:07.979Z,6.25
2023-01-09T18:54:09.894Z,4.93
2023-01-09T18:57:12.027Z,7.30
2023-01-09T19:00:14.664Z,7.50
2023-01-09T19:03:16.189Z,6.75
2023-01-09T19:06:17.746Z,7.60
2023-01-09T19:09:19.273Z,4.70
2023-01-09T19:12:20.814Z,4.78
2023-01-09T19:15:22.363Z,4.90
2023-01-09T19:18:25.173Z,3.90
2023-01-09T19:21:26.765Z,4.72
2023-01-09T19:24:28.320Z,4.15
2023-01-09T19:27:29.806Z,4.75
2023-01-09T19:30:31.342Z,3.60
2023-01-09T19:33:32.959Z,3.17
2023-01-09T19:36:34.509Z,3.70
2023-01-09T19:39:36.020Z,3.85
2023-01-09T19:42:37.553Z,3.28
2023-01-09T19:45:39.070Z,3.67
2023-01-09T19:48:40.947Z,3.10
2023-01-09T19:51:42.506Z,3.13
2023-01-09T19:54:44.005Z,3.65
2023-01-09T19:57:45.649Z,2.47
2023-01-09T20:00:47.169Z,2.53
2023-01-09T20:03:49.036Z,2.67
2023-01-09T20:06:50.535Z,2.75
2023-01-09T20:09:52.022Z,2.67
2023-01-09T20:12:53.530Z,3.03
2023-01-09T20:15:57.944Z,2.80
2023-01-09T20:19:01.837Z,2.35
2023-01-09T20:22:03.332Z,2.65
2023-01-09T20:25:05.225Z,2.70
2023-01-09T20:28:06.689Z,3.60
2023-01-09T20:31:13.678Z,3.88
2023-01-09T20:34:15.462Z,4.97
2023-01-09T20:37:16.958Z,5.65
2023-01-09T20:40:18.443Z,4.40
2023-01-09T20:43:19.949Z,4.38
2023-01-09T20:46:22.908Z,4.45
2023-01-09T20:49:24.401Z,4.43
2023-01-09T20:52:25.936Z,3.28
2023-01-09T20:55:27.454Z,4.40
2023-01-09T20:58:28.912Z,4.65
2023-01-09T21:01:30.353Z,3.40
2023-01-09T21:04:31.939Z,3.70
2023-01-09T21:07:33.715Z,3.58
2023-01-09T21:10:35.213Z,3.58
2023-01-09T21:13:37.079Z,3.97
2023-01-09T21:16:38.556Z,3.63
2023-01-09T21:19:40.050Z,3.58
2023-01-09T21:22:42.176Z,4.20
2023-01-09T21:25:43.631Z,3.78
2023-01-09T21:28:45.194Z,3.67
2023-01-09T21:31:46.710Z,3.22
2023-01-09T21:34:48.241Z,3.65
2023-01-09T21:37:49.840Z,4.30
2023-01-09T21:40:52.581Z,3.08
2023-01-09T21:43:54.083Z,3.38
2023-01-09T21:46:56.159Z,2.30
2023-01-09T21:49:57.653Z,2.78
2023-01-09T21:52:59.500Z,4.07
2023-01-09T21:56:03.404Z,2.88
2023-01-09T21:59:04.915Z,2.50
2023-01-09T22:02:06.550Z,2.25
2023-01-09T22:05:08.143Z,2.00
2023-01-09T22:08:09.680Z,1.88
2023-01-09T22:11:11.181Z,2.50
2023-01-09T22:14:14.876Z,2.42
2023-01-09T22:17:16.360Z,2.97
2023-01-09T22:20:17.981Z,2.38
2023-01-09T22:23:19.442Z,2.08
2023-01-09T22:26:21.484Z,2.28
2023-01-09T22:29:23.079Z,2.95
2023-01-09T22:32:24.585Z,2.40
2023-01-09T22:35:26.187Z,2.13
2023-01-09T22:38:27.700Z,2.67
2023-01-09T22:41:30.160Z,2.00
2023-01-09T22:44:31.597Z,2.45
2023-01-09T22:47:33.099Z,2.25
2023-01-09T22:50:34.763Z,2.30
2023-01-09T22:53:36.214Z,2.35
2023-01-09T22:56:37.711Z,2.35
2023-01-09T22:59:39.173Z,2.50
2023-01-09T23:02:40.797Z,2.17
2023-01-09T23:05:42.446Z,2.47
2023-01-09T23:08:44.496Z,2.35
2023-01-09T23:11:45.982Z,2.10
2023-01-09T23:14:47.465Z,2.13
2023-01-09T23:17:49.008Z,2.25
2023-01-09T23:20:55.521Z,2.00
2023-01-09T23:23:57.045Z,2.53
2023-01-09T23:26:59.227Z,2.42
2023-01-09T23:30:00.751Z,2.53
2023-01-09T23:33:02.225Z,2.33
2023-01-09T23:36:04.109Z,3.42
2023-01-09T23:39:05.587Z,2.85
2023-01-09T23:42:07.045Z,2.47
2023-01-09T23:45:08.786Z,2.45
2023-01-09T23:48:13.035Z,2.35
2023-01-09T23:54:16.420Z,2.28
2023-01-09T23:57:17.875Z,2.47
